createdAt,value
2022-10-31T00:00:45.094Z,97272.31
2022-10-31T00:03:19.352Z,97281.77
2022-10-31T00:05:53.325Z,97273.20
2022-10-31T00:08:26.587Z,97268.91
2022-10-31T00:10:59.897Z,97262.92
2022-10-31T00:13:33.737Z,97247.48
2022-10-31T00:16:07.953Z,97248.36
2022-10-31T00:18:41.486Z,97257.72
2022-10-31T00:21:14.719Z,97271.45
2022-10-31T00:23:48.420Z,97270.55
2022-10-31T00:26:21.845Z,97253.49
2022-10-31T00:28:55.319Z,97247.50
2022-10-31T00:31:28.925Z,97260.30
2022-10-31T00:34:04.037Z,97257.78
2022-10-31T00:36:37.349Z,97238.95
2022-10-31T00:39:11.057Z,97256.06
2022-10-31T00:41:44.399Z,97248.44
2022-10-31T00:44:18.504Z,97263.83
2022-10-31T00:46:52.604Z,97248.33
2022-10-31T00:49:27.738Z,97255.23
2022-10-31T00:52:02.059Z,97251.86
2022-10-31T00:54:35.425Z,97262.15
2022-10-31T00:57:08.786Z,97269.02
2022-10-31T00:59:42.027Z,97259.57
2022-10-31T01:02:15.423Z,97235.60
2022-10-31T01:04:48.964Z,97248.36
2022-10-31T01:07:22.000Z,97246.58
2022-10-31T01:09:55.519Z,97255.14
2022-10-31T01:12:29.064Z,97241.37
2022-10-31T01:15:03.891Z,97259.16
2022-10-31T01:17:37.346Z,97220.58
2022-10-31T01:20:14.143Z,97248.80
2022-10-31T01:22:47.658Z,97260.63
2022-10-31T01:25:21.505Z,97271.63
2022-10-31T01:27:55.352Z,97269.89
2022-10-31T01:30:28.604Z,97257.84
2022-10-31T01:33:02.410Z,97262.84
2022-10-31T01:35:35.842Z,97271.25
2022-10-31T01:38:09.269Z,97266.00
2022-10-31T01:40:42.790Z,97257.33
2022-10-31T01:43:16.946Z,97257.30
2022-10-31T01:45:56.463Z,97273.37
2022-10-31T01:48:32.673Z,97275.86
2022-10-31T01:51:07.097Z,97274.08
2022-10-31T01:53:42.598Z,97275.80
2022-10-31T01:56:18.308Z,97269.86
2022-10-31T01:58:54.204Z,97277.48
2022-10-31T02:01:27.626Z,97263.83
2022-10-31T02:04:01.430Z,97278.20
2022-10-31T02:06:39.978Z,97273.07
2022-10-31T02:09:14.957Z,97281.64
2022-10-31T02:11:49.155Z,97282.41
2022-10-31T02:14:26.512Z,97263.60
2022-10-31T02:17:00.969Z,97266.11
2022-10-31T02:19:37.663Z,97284.05
2022-10-31T02:22:16.598Z,97279.74
2022-10-31T02:24:59.517Z,97269.56
2022-10-31T02:28:02.922Z,97276.33
2022-10-31T02:30:41.571Z,97283.09
2022-10-31T02:33:24.462Z,97277.03
2022-10-31T02:36:04.649Z,97284.73
2022-10-31T02:38:44.193Z,97271.91
2022-10-31T02:41:23.500Z,97276.09
2022-10-31T02:44:03.090Z,97280.34
2022-10-31T02:46:41.399Z,97276.95
2022-10-31T02:49:19.573Z,97275.21
2022-10-31T02:51:53.892Z,97265.80
2022-10-31T02:54:28.971Z,97274.38
2022-10-31T02:57:06.964Z,97273.60
2022-10-31T02:59:43.049Z,97265.10
2022-10-31T03:02:30.389Z,97265.13
2022-10-31T03:05:19.470Z,97273.58
2022-10-31T03:07:58.600Z,97278.63
2022-10-31T03:10:36.540Z,97280.34
2022-10-31T03:13:13.828Z,97276.09
2022-10-31T03:15:50.256Z,97276.99
2022-10-31T03:18:28.790Z,97276.19
2022-10-31T03:21:05.093Z,97271.98
2022-10-31T03:23:40.134Z,97273.64
2022-10-31T03:26:16.429Z,97265.13
2022-10-31T03:28:54.148Z,97279.74
2022-10-31T03:31:27.505Z,97274.62
2022-10-31T03:34:03.424Z,97270.38
2022-10-31T03:36:39.810Z,97292.63
2022-10-31T03:39:16.533Z,97283.22
2022-10-31T03:44:35.060Z,97285.17
2022-10-31T03:47:09.198Z,97286.70
2022-10-31T03:49:43.071Z,97286.63
2022-10-31T03:52:22.473Z,97289.29
2022-10-31T03:55:00.223Z,97302.97
2022-10-31T03:57:38.134Z,97290.92
2022-10-31T04:00:15.642Z,97305.39
2022-10-31T04:02:54.240Z,97296.94
2022-10-31T04:05:28.893Z,97302.02
2022-10-31T04:08:06.523Z,97303.73
2022-10-31T04:10:41.189Z,97306.31
2022-10-31T04:15:54.952Z,97318.27
2022-10-31T04:18:29.101Z,97316.51
2022-10-31T04:21:07.550Z,97319.97
2022-10-31T04:23:40.926Z,97319.92
2022-10-31T04:26:15.970Z,97329.33
2022-10-31T04:28:50.299Z,97329.35
2022-10-31T04:31:23.676Z,97301.19
2022-10-31T04:33:57.084Z,97311.56
2022-10-31T04:36:30.152Z,97330.30
2022-10-31T04:39:04.268Z,97333.70
2022-10-31T04:41:44.906Z,97327.66
2022-10-31T04:44:21.661Z,97332.84
2022-10-31T04:46:56.715Z,97346.48
2022-10-31T04:49:30.090Z,97335.44
2022-10-31T04:52:03.573Z,97347.42
2022-10-31T04:54:37.033Z,97347.50
2022-10-31T04:57:15.092Z,97336.41
2022-10-31T04:59:50.251Z,97358.59
2022-10-31T05:02:23.701Z,97365.53
2022-10-31T05:04:58.573Z,97342.47
2022-10-31T05:07:31.916Z,97355.30
2022-10-31T05:10:05.780Z,97351.02
2022-10-31T05:12:39.784Z,97347.69
2022-10-31T05:15:14.582Z,97356.25
2022-10-31T05:18:05.976Z,97381.04
2022-10-31T05:20:57.074Z,97377.63
2022-10-31T05:23:31.962Z,97398.97
2022-10-31T05:26:06.023Z,97397.47
2022-10-31T05:28:39.688Z,97398.44
2022-10-31T05:31:12.916Z,97416.42
2022-10-31T05:33:48.002Z,97416.45
2022-10-31T05:36:39.297Z,97423.31
2022-10-31T05:39:17.338Z,97441.36
2022-10-31T05:41:52.022Z,97433.69
2022-10-31T05:44:26.800Z,97445.73
2022-10-31T05:49:50.938Z,97440.93
2022-10-31T05:55:20.886Z,97463.33
2022-10-31T05:57:58.094Z,97460.69
2022-10-31T06:00:31.840Z,97475.38
2022-10-31T06:05:50.756Z,97503.01
2022-10-31T06:08:23.187Z,97508.27
2022-10-31T06:10:58.317Z,97518.66
2022-10-31T06:13:49.457Z,97509.41
2022-10-31T06:16:24.741Z,97514.63
2022-10-31T06:18:58.218Z,97519.92
2022-10-31T06:21:32.304Z,97533.73
2022-10-31T06:24:06.170Z,97546.69
2022-10-31T06:26:44.093Z,97557.95
2022-10-31T06:29:17.507Z,97567.40
2022-10-31T06:31:56.048Z,97563.22
2022-10-31T06:34:29.133Z,97565.91
2022-10-31T06:37:03.161Z,97576.32
2022-10-31T06:39:37.218Z,97579.85
2022-10-31T06:42:10.933Z,97582.46
2022-10-31T06:44:44.310Z,97589.45
2022-10-31T06:47:45.679Z,97603.27
2022-10-31T06:50:12.789Z,97600.84
2022-10-31T06:52:47.689Z,97609.53
2022-10-31T06:55:22.015Z,97613.03
2022-10-31T06:57:58.890Z,97619.06
2022-10-31T07:00:32.637Z,97623.55
2022-10-31T07:03:10.080Z,97634.92
2022-10-31T07:05:44.238Z,97642.79
2022-10-31T07:08:17.866Z,97649.68
2022-10-31T07:10:55.023Z,97661.75
2022-10-31T07:13:28.748Z,97668.64
2022-10-31T07:16:05.753Z,97674.69
2022-10-31T07:18:40.390Z,97684.19
2022-10-31T07:21:14.344Z,97683.37
2022-10-31T07:23:49.330Z,97692.02
2022-10-31T07:26:40.673Z,97695.52
2022-10-31T07:29:13.917Z,97700.72
2022-10-31T07:31:48.982Z,97709.29
2022-10-31T07:34:23.946Z,97707.61
2022-10-31T07:37:04.988Z,97729.98
2022-10-31T07:39:38.570Z,97727.42
2022-10-31T07:42:12.854Z,97744.64
2022-10-31T07:44:47.882Z,97737.86
2022-10-31T07:47:43.214Z,97756.78
2022-10-31T07:50:35.827Z,97757.00
2022-10-31T07:53:27.347Z,97761.44
2022-10-31T07:56:02.466Z,97751.53
2022-10-31T07:58:35.748Z,97763.09
2022-10-31T08:01:10.129Z,97761.67
2022-10-31T08:03:45.321Z,97772.07
2022-10-31T08:06:26.099Z,97780.66
2022-10-31T08:09:17.610Z,97776.33
2022-10-31T08:11:51.243Z,97791.81
2022-10-31T08:14:24.700Z,97788.38
2022-10-31T08:16:58.491Z,97808.14
2022-10-31T08:19:33.572Z,97799.55
2022-10-31T08:22:07.510Z,97813.23
2022-10-31T08:24:41.734Z,97816.73
2022-10-31T08:27:15.498Z,97827.90
2022-10-31T08:29:50.055Z,97831.31
2022-10-31T08:32:24.781Z,97827.82
2022-10-31T08:35:15.826Z,97833.88
2022-10-31T08:38:08.780Z,97850.36
2022-10-31T08:40:43.110Z,97854.54
2022-10-31T08:43:17.215Z,97854.55
2022-10-31T08:45:54.254Z,97863.27
2022-10-31T08:48:30.661Z,97859.06
2022-10-31T08:51:04.266Z,97872.08
2022-10-31T08:53:38.273Z,97856.62
2022-10-31T08:56:16.367Z,97851.41
2022-10-31T08:58:50.235Z,97877.06
2022-10-31T09:01:24.930Z,97860.64
2022-10-31T09:03:58.754Z,97881.30
2022-10-31T09:06:31.965Z,97887.36
2022-10-31T09:09:05.681Z,97885.73
2022-10-31T09:11:39.292Z,97879.16
2022-10-31T09:14:17.117Z,97896.38
2022-10-31T09:17:00.928Z,97886.95
2022-10-31T09:19:37.016Z,97884.38
2022-10-31T09:22:11.759Z,97896.40
2022-10-31T09:24:45.428Z,97902.56
2022-10-31T09:27:18.809Z,97903.71
2022-10-31T09:29:53.819Z,97893.66
2022-10-31T09:32:27.072Z,97899.28
2022-10-31T09:35:00.597Z,97902.58
2022-10-31T09:37:34.238Z,97900.72
2022-10-31T09:40:08.858Z,97906.83
2022-10-31T09:43:00.930Z,97910.80
2022-10-31T09:45:37.413Z,97913.50
2022-10-31T09:48:40.791Z,97938.33
2022-10-31T09:51:24.764Z,97946.20
2022-10-31T09:54:05.201Z,97961.69
2022-10-31T09:56:39.689Z,97970.39
2022-10-31T09:59:18.036Z,97983.25
2022-10-31T10:01:54.189Z,97986.70
2022-10-31T10:04:39.424Z,97990.36
2022-10-31T10:10:04.827Z,97999.88
2022-10-31T10:12:46.596Z,98008.48
2022-10-31T10:15:32.520Z,98020.41
2022-10-31T10:18:10.052Z,98016.63
2022-10-31T10:20:46.274Z,98005.25
2022-10-31T10:23:33.771Z,98018.27
2022-10-31T10:26:11.456Z,98017.61
2022-10-31T10:28:45.002Z,98023.85
2022-10-31T10:31:20.186Z,98023.06
2022-10-31T10:34:00.944Z,98026.45
2022-10-31T10:36:38.723Z,98032.48
2022-10-31T10:39:16.146Z,98016.86
2022-10-31T10:42:10.703Z,98041.84
2022-10-31T10:45:04.173Z,98029.73
2022-10-31T10:47:39.784Z,98023.50
2022-10-31T10:50:17.581Z,98007.86
2022-10-31T10:52:51.934Z,98030.06
2022-10-31T10:55:32.422Z,98027.30
2022-10-31T10:58:08.165Z,98021.83
2022-10-31T11:00:43.484Z,98021.66
2022-10-31T11:03:17.893Z,98030.98
2022-10-31T11:05:53.729Z,98019.63
2022-10-31T11:08:31.667Z,98016.11
2022-10-31T11:11:08.513Z,98036.64
2022-10-31T11:13:44.387Z,98060.72
2022-10-31T11:16:20.211Z,98039.23
2022-10-31T11:18:54.024Z,98049.44
2022-10-31T11:21:29.950Z,98051.82
2022-10-31T11:24:18.803Z,98043.96
2022-10-31T11:26:53.361Z,98049.83
2022-10-31T11:29:28.035Z,98052.31
2022-10-31T11:32:02.813Z,98042.67
2022-10-31T11:34:39.018Z,98051.08
2022-10-31T11:37:16.071Z,98038.19
2022-10-31T11:39:53.877Z,98032.89
2022-10-31T11:42:27.222Z,98050.82
2022-10-31T11:45:00.799Z,98063.63
2022-10-31T11:47:34.849Z,98069.44
2022-10-31T11:50:13.673Z,98059.92
2022-10-31T11:52:47.165Z,98060.83
2022-10-31T11:55:32.345Z,98058.17
2022-10-31T11:58:06.079Z,98049.58
2022-10-31T12:00:42.835Z,98050.45
2022-10-31T12:03:18.848Z,98059.14
2022-10-31T12:05:55.021Z,98066.73
2022-10-31T12:08:31.450Z,98073.63
2022-10-31T12:11:08.603Z,98084.73
2022-10-31T12:13:45.228Z,98068.42
2022-10-31T12:16:21.611Z,98076.95
2022-10-31T12:19:03.330Z,98073.42
2022-10-31T12:21:47.910Z,98065.73
2022-10-31T12:24:31.650Z,98074.23
2022-10-31T12:27:11.958Z,98085.28
2022-10-31T12:29:53.277Z,98090.43
2022-10-31T12:32:33.505Z,98069.09
2022-10-31T12:35:31.071Z,98075.09
2022-10-31T12:38:07.674Z,98087.87
2022-10-31T12:41:08.189Z,98082.83
2022-10-31T12:43:45.133Z,98085.40
2022-10-31T12:49:30.777Z,98107.90
2022-10-31T12:52:11.326Z,98095.72
2022-10-31T12:54:53.540Z,98109.44
2022-10-31T12:57:31.661Z,98102.48
2022-10-31T13:00:08.355Z,98103.45
2022-10-31T13:05:28.623Z,98125.87
2022-10-31T13:08:04.899Z,98128.27
2022-10-31T13:10:42.446Z,98127.47
2022-10-31T13:13:18.694Z,98142.08
2022-10-31T13:15:55.148Z,98141.19
2022-10-31T13:18:31.890Z,98158.43
2022-10-31T13:21:08.579Z,98119.84
2022-10-31T13:23:51.028Z,98160.28
2022-10-31T13:26:23.500Z,98147.48
2022-10-31T13:28:57.373Z,98160.35
2022-10-31T13:31:30.904Z,98157.86
2022-10-31T13:34:07.564Z,98165.59
2022-10-31T13:36:43.912Z,98157.88
2022-10-31T13:39:23.520Z,98171.50
2022-10-31T13:42:00.815Z,98192.19
2022-10-31T13:44:38.500Z,98181.80
2022-10-31T13:47:24.091Z,98200.78
2022-10-31T13:50:10.484Z,98197.55
2022-10-31T13:52:45.011Z,98181.24
2022-10-31T13:55:41.701Z,98207.84
2022-10-31T13:58:27.808Z,98219.75
2022-10-31T14:01:15.930Z,98203.41
2022-10-31T14:04:23.954Z,98210.23
2022-10-31T14:06:38.677Z,98213.54
2022-10-31T14:09:24.376Z,98206.59
2022-10-31T14:12:00.386Z,98206.61
2022-10-31T14:14:38.327Z,98222.11
2022-10-31T14:17:17.034Z,98210.91
2022-10-31T14:20:05.446Z,98231.68
2022-10-31T14:22:43.058Z,98244.46
2022-10-31T14:25:34.589Z,98218.63
2022-10-31T14:28:23.248Z,98223.02
2022-10-31T14:30:58.657Z,98215.16
2022-10-31T14:33:36.057Z,98253.64
2022-10-31T14:38:57.797Z,98240.25
2022-10-31T14:41:42.414Z,98250.37
2022-10-31T14:44:28.412Z,98254.63
2022-10-31T14:47:04.770Z,98248.77
2022-10-31T14:49:46.013Z,98246.84
2022-10-31T14:52:22.272Z,98264.00
2022-10-31T14:54:59.939Z,98236.70
2022-10-31T14:57:37.488Z,98264.77
2022-10-31T15:00:17.539Z,98268.16
2022-10-31T15:02:56.265Z,98272.45
2022-10-31T15:05:31.429Z,98275.98
2022-10-31T15:08:04.900Z,98277.67
2022-10-31T15:10:41.126Z,98300.81
2022-10-31T15:13:19.484Z,98291.36
2022-10-31T15:15:56.708Z,98309.37
2022-10-31T15:18:31.169Z,98296.63
2022-10-31T15:21:09.896Z,98314.50
2022-10-31T15:23:44.922Z,98320.39
2022-10-31T15:26:21.026Z,98302.38
2022-10-31T15:29:18.638Z,98326.28
2022-10-31T15:31:57.986Z,98331.19
2022-10-31T15:34:35.211Z,98331.98
2022-10-31T15:37:13.473Z,98344.88
2022-10-31T15:39:48.536Z,98344.05
2022-10-31T15:42:25.742Z,98326.87
2022-10-31T15:45:01.857Z,98329.41
2022-10-31T15:47:36.475Z,98348.28
2022-10-31T15:50:21.296Z,98352.60
2022-10-31T15:52:55.051Z,98354.45
2022-10-31T15:55:30.940Z,98351.05
2022-10-31T15:58:07.053Z,98363.89
2022-10-31T16:00:42.267Z,98354.52
2022-10-31T16:03:27.932Z,98352.00
2022-10-31T16:06:04.770Z,98363.07
2022-10-31T16:08:39.404Z,98365.74
2022-10-31T16:11:24.221Z,98386.42
2022-10-31T16:14:00.828Z,98382.09
2022-10-31T16:16:36.717Z,98382.89
2022-10-31T16:19:16.195Z,98380.34
2022-10-31T16:21:51.216Z,98396.67
2022-10-31T16:24:27.424Z,98406.95
2022-10-31T16:27:03.947Z,98407.87
2022-10-31T16:29:40.803Z,98406.16
2022-10-31T16:32:30.547Z,98403.52
2022-10-31T16:35:19.937Z,98411.27
2022-10-31T16:37:53.626Z,98417.29
2022-10-31T16:40:27.329Z,98416.43
2022-10-31T16:43:02.933Z,98422.55
2022-10-31T16:45:37.158Z,98427.56
2022-10-31T16:48:15.755Z,98427.56
2022-10-31T16:50:49.710Z,98432.75
2022-10-31T16:53:24.311Z,98424.98
2022-10-31T16:56:00.054Z,98429.28
2022-10-31T16:58:35.552Z,98431.03
2022-10-31T17:01:09.904Z,98438.87
2022-10-31T17:03:43.697Z,98434.64
2022-10-31T17:06:18.051Z,98437.11
2022-10-31T17:08:51.738Z,98424.23
2022-10-31T17:11:27.371Z,98440.62
2022-10-31T17:14:01.500Z,98444.13
2022-10-31T17:16:35.231Z,98436.45
2022-10-31T17:19:11.487Z,98441.55
2022-10-31T17:21:45.267Z,98450.10
2022-10-31T17:24:18.991Z,98441.48
2022-10-31T17:26:52.701Z,98454.43
2022-10-31T17:29:26.235Z,98455.33
2022-10-31T17:32:00.491Z,98452.84
2022-10-31T17:34:34.001Z,98461.41
2022-10-31T17:37:07.746Z,98468.14
2022-10-31T17:39:41.060Z,98465.57
2022-10-31T17:42:14.633Z,98472.41
2022-10-31T17:44:48.605Z,98473.33
2022-10-31T17:47:22.065Z,98480.20
2022-10-31T17:49:55.596Z,98475.05
2022-10-31T17:52:28.968Z,98483.51
2022-10-31T17:55:02.381Z,98497.33
2022-10-31T17:57:37.541Z,98483.61
2022-10-31T18:00:14.982Z,98487.02
2022-10-31T18:02:48.473Z,98493.82
2022-10-31T18:05:21.913Z,98494.88
2022-10-31T18:07:57.276Z,98505.20
2022-10-31T18:10:30.813Z,98503.55
2022-10-31T18:13:04.669Z,98505.30
2022-10-31T18:15:41.527Z,98498.25
2022-10-31T18:18:17.483Z,98506.19
2022-10-31T18:20:55.176Z,98505.27
2022-10-31T18:23:30.231Z,98523.27
2022-10-31T18:26:04.822Z,98515.50
2022-10-31T18:28:39.279Z,98511.21
2022-10-31T18:31:12.925Z,98518.80
2022-10-31T18:33:47.154Z,98537.70
2022-10-31T18:36:20.533Z,98514.51
2022-10-31T18:38:54.236Z,98537.64
2022-10-31T18:41:27.944Z,98535.92
2022-10-31T18:44:01.668Z,98548.70
2022-10-31T18:46:35.773Z,98536.64
2022-10-31T18:49:09.316Z,98547.84
2022-10-31T18:51:43.169Z,98553.86
2022-10-31T18:54:17.007Z,98548.70
2022-10-31T18:56:50.628Z,98551.09
2022-10-31T18:59:24.454Z,98547.70
2022-10-31T19:01:58.209Z,98565.70
2022-10-31T19:04:31.898Z,98570.11
2022-10-31T19:07:05.276Z,98560.52
2022-10-31T19:09:39.203Z,98569.06
2022-10-31T19:12:12.728Z,98573.40
2022-10-31T19:14:46.322Z,98569.21
2022-10-31T19:17:19.832Z,98581.17
2022-10-31T19:19:53.695Z,98575.01
2022-10-31T19:22:27.475Z,98544.01
2022-10-31T19:25:05.033Z,98560.22
2022-10-31T19:27:36.541Z,98573.96
2022-10-31T19:30:12.915Z,98573.89
2022-10-31T19:32:46.479Z,98577.17
2022-10-31T19:35:20.245Z,98588.27
2022-10-31T19:37:53.483Z,98577.02
2022-10-31T19:40:27.138Z,98588.97
2022-10-31T19:43:01.392Z,98577.69
2022-10-31T19:45:34.921Z,98591.39
2022-10-31T19:48:08.798Z,98599.08
2022-10-31T19:50:42.354Z,98597.33
2022-10-31T19:53:15.714Z,98610.28
2022-10-31T19:55:49.225Z,98605.13
2022-10-31T19:58:22.391Z,98605.98
2022-10-31T20:00:55.812Z,98618.05
2022-10-31T20:03:29.431Z,98609.42
2022-10-31T20:06:04.784Z,98624.09
2022-10-31T20:11:20.302Z,98626.09
2022-10-31T20:13:54.995Z,98629.98
2022-10-31T20:16:29.626Z,98624.80
2022-10-31T20:19:03.284Z,98628.97
2022-10-31T20:21:38.851Z,98635.06
2022-10-31T20:24:13.145Z,98633.39
2022-10-31T20:26:46.571Z,98634.28
2022-10-31T20:29:20.169Z,98634.41
2022-10-31T20:31:53.421Z,98635.25
2022-10-31T20:34:26.963Z,98647.24
2022-10-31T20:37:00.211Z,98636.03
2022-10-31T20:39:37.126Z,98636.81
2022-10-31T20:42:10.765Z,98636.77
2022-10-31T20:44:44.371Z,98651.14
2022-10-31T20:47:20.628Z,98651.14
2022-10-31T20:49:53.146Z,98649.45
2022-10-31T20:52:26.741Z,98656.20
2022-10-31T20:54:59.825Z,98655.38
2022-10-31T20:57:33.625Z,98644.19
2022-10-31T21:00:09.298Z,98652.69
2022-10-31T21:02:43.734Z,98654.24
2022-10-31T21:05:17.331Z,98660.13
2022-10-31T21:10:24.220Z,98663.52
2022-10-31T21:12:57.660Z,98665.19
2022-10-31T21:15:31.019Z,98670.22
2022-10-31T21:18:04.079Z,98678.75
2022-10-31T21:20:38.744Z,98674.37
2022-10-31T21:23:12.940Z,98674.42
2022-10-31T21:25:46.533Z,98684.89
2022-10-31T21:28:20.152Z,98684.03
2022-10-31T21:30:53.399Z,98688.97
2022-10-31T21:33:26.738Z,98683.05
2022-10-31T21:36:00.203Z,98699.14
2022-10-31T21:38:34.087Z,98693.00
2022-10-31T21:41:09.894Z,98695.67
2022-10-31T21:43:45.666Z,98698.92
2022-10-31T21:46:21.206Z,98697.03
2022-10-31T21:48:55.317Z,98705.45
2022-10-31T21:51:30.942Z,98709.83
2022-10-31T21:54:22.121Z,98709.05
2022-10-31T21:56:55.839Z,98712.35
2022-10-31T21:59:29.678Z,98717.41
2022-10-31T22:02:03.093Z,98722.55
2022-10-31T22:04:36.452Z,98722.64
2022-10-31T22:07:10.103Z,98725.39
2022-10-31T22:09:45.147Z,98733.16
2022-10-31T22:12:18.541Z,98733.92
2022-10-31T22:14:52.009Z,98725.94
2022-10-31T22:17:26.040Z,98737.09
2022-10-31T22:19:59.907Z,98745.66
2022-10-31T22:22:33.444Z,98735.33
2022-10-31T22:25:08.347Z,98750.77
2022-10-31T22:27:42.643Z,98756.00
2022-10-31T22:30:16.254Z,98759.44
2022-10-31T22:32:49.969Z,98748.19
2022-10-31T22:35:23.334Z,98765.36
2022-10-31T22:37:56.817Z,98767.02
2022-10-31T22:40:30.221Z,98771.35
2022-10-31T22:43:04.267Z,98767.02
2022-10-31T22:45:37.841Z,98761.88
2022-10-31T22:48:11.215Z,98769.69
2022-10-31T22:50:44.643Z,98762.02
2022-10-31T22:53:18.061Z,98762.59
2022-10-31T22:55:52.880Z,98764.81
2022-10-31T22:58:26.261Z,98761.42
2022-10-31T23:01:00.671Z,98775.10
2022-10-31T23:03:34.063Z,98776.91
2022-10-31T23:06:09.183Z,98774.47
2022-10-31T23:08:42.966Z,98786.52
2022-10-31T23:11:24.373Z,98772.76
2022-10-31T23:14:12.633Z,98770.85
2022-10-31T23:16:48.507Z,98776.00
2022-10-31T23:19:23.871Z,98772.53
2022-10-31T23:22:00.962Z,98786.29
2022-10-31T23:24:37.878Z,98776.86
2022-10-31T23:27:14.624Z,98773.37
2022-10-31T23:29:49.479Z,98792.06
2022-10-31T23:32:25.149Z,98788.58
2022-10-31T23:34:59.392Z,98784.48
2022-10-31T23:37:36.117Z,98786.92
2022-10-31T23:40:11.616Z,98791.16
2022-10-31T23:42:44.924Z,98782.67
2022-10-31T23:45:18.917Z,98798.16
2022-10-31T23:47:52.192Z,98806.82
2022-10-31T23:50:25.744Z,98802.48
2022-10-31T23:52:59.205Z,98810.16
2022-10-31T23:55:32.616Z,98810.30
2022-10-31T23:58:06.092Z,98810.30
